createdAt,value
2017-07-18T00:02:16.489Z,99028.85
2017-07-18T00:04:45.947Z,99031.44
2017-07-18T00:07:15.389Z,99033.11
2017-07-18T00:09:44.838Z,99036.52
2017-07-18T00:12:14.289Z,99031.46
2017-07-18T00:14:43.718Z,99034.19
2017-07-18T00:17:13.152Z,99032.30
2017-07-18T00:19:42.600Z,99030.97
2017-07-18T00:22:12.053Z,99027.30
2017-07-18T00:24:41.494Z,99028.95
2017-07-18T00:27:10.959Z,99028.97
2017-07-18T00:29:40.396Z,99028.16
2017-07-18T00:32:09.849Z,99027.91
2017-07-18T00:34:39.310Z,99027.08
2017-07-18T00:37:08.762Z,99024.91
2017-07-18T00:39:38.214Z,99020.98
2017-07-18T00:42:07.665Z,99016.91
2017-07-18T00:44:37.125Z,99014.33
2017-07-18T00:47:06.861Z,99020.16
2017-07-18T00:49:36.581Z,99014.33
2017-07-18T00:52:06.036Z,99018.02
2017-07-18T00:54:35.476Z,99014.61
2017-07-18T00:57:05.212Z,99013.95
2017-07-18T00:59:34.945Z,99010.67
2017-07-18T01:02:04.401Z,99008.52
2017-07-18T01:04:33.871Z,99015.45
2017-07-18T01:07:03.301Z,99014.21
2017-07-18T01:09:32.773Z,99015.16
2017-07-18T01:12:02.216Z,99016.69
2017-07-18T01:14:31.670Z,99008.94
2017-07-18T01:17:01.112Z,99015.03
2017-07-18T01:19:30.564Z,99009.33
2017-07-18T01:22:00.287Z,99011.38
2017-07-18T01:24:30.023Z,99013.55
2017-07-18T01:26:59.459Z,99014.64
2017-07-18T01:29:29.180Z,99012.06
2017-07-18T01:31:58.909Z,99016.16
2017-07-18T01:34:28.645Z,99011.81
2017-07-18T01:36:58.381Z,99014.80
2017-07-18T01:39:28.141Z,99012.63
2017-07-18T01:41:57.895Z,99014.94
2017-07-18T01:44:27.645Z,99016.57
2017-07-18T01:46:57.371Z,99021.59
2017-07-18T01:49:27.126Z,99013.17
2017-07-18T01:51:56.570Z,99011.77
2017-07-18T01:54:26.307Z,99019.92
2017-07-18T01:56:56.034Z,99016.41
2017-07-18T01:59:25.749Z,99027.12
2017-07-18T02:01:55.133Z,99020.77
2017-07-18T02:04:24.866Z,99016.00
2017-07-18T02:06:54.255Z,99018.03
2017-07-18T02:09:23.982Z,99017.34
2017-07-18T02:11:53.719Z,99009.87
2017-07-18T02:14:23.459Z,99017.87
2017-07-18T02:16:53.198Z,99014.09
2017-07-18T02:19:22.931Z,99009.47
2017-07-18T02:21:52.653Z,99007.97
2017-07-18T02:24:22.392Z,99008.38
2017-07-18T02:26:52.126Z,99012.45
2017-07-18T02:29:21.848Z,99006.74
2017-07-18T02:31:51.597Z,99014.08
2017-07-18T02:34:21.335Z,99009.32
2017-07-18T02:36:51.113Z,99012.05
2017-07-18T02:39:20.954Z,99010.66
2017-07-18T02:41:50.684Z,99005.52
2017-07-18T02:44:20.422Z,99001.72
2017-07-18T02:46:50.170Z,99005.25
2017-07-18T02:49:19.929Z,99003.34
2017-07-18T02:51:49.653Z,99002.13
2017-07-18T02:54:19.395Z,99002.26
2017-07-18T02:56:49.129Z,99005.80
2017-07-18T02:59:18.875Z,99004.70
2017-07-18T03:01:48.601Z,98999.69
2017-07-18T03:04:18.322Z,99002.37
2017-07-18T03:06:48.049Z,99000.75
2017-07-18T03:09:17.766Z,99004.27
2017-07-18T03:11:47.544Z,99007.27
2017-07-18T03:14:17.269Z,99002.64
2017-07-18T03:16:46.999Z,99007.66
2017-07-18T03:19:16.724Z,99004.13
2017-07-18T03:21:46.474Z,99001.67
2017-07-18T03:24:27.287Z,99003.03
2017-07-18T03:26:56.875Z,99006.28
2017-07-18T03:29:26.593Z,99006.41
2017-07-18T03:31:56.324Z,99012.25
2017-07-18T03:34:26.057Z,99005.47
2017-07-18T03:36:55.794Z,99008.74
2017-07-18T03:39:25.546Z,99009.28
2017-07-18T03:41:55.270Z,99010.91
2017-07-18T03:44:25.030Z,99014.45
2017-07-18T03:46:54.757Z,99005.48
2017-07-18T03:49:24.487Z,99012.40
2017-07-18T03:51:54.244Z,99014.30
2017-07-18T03:54:23.981Z,99010.50
2017-07-18T03:56:53.732Z,99010.66
2017-07-18T03:59:23.469Z,99008.22
2017-07-18T04:01:53.194Z,99014.59
2017-07-18T04:04:22.936Z,99010.26
2017-07-18T04:06:52.754Z,99007.66
2017-07-18T04:09:22.499Z,99011.22
2017-07-18T04:11:52.255Z,99009.19
2017-07-18T04:14:21.975Z,99013.25
2017-07-18T04:16:51.699Z,99009.45
2017-07-18T04:19:21.521Z,99006.75
2017-07-18T04:21:51.263Z,99012.19
2017-07-18T04:24:20.990Z,99007.97
2017-07-18T04:26:50.733Z,99013.13
2017-07-18T04:29:20.503Z,99013.98
2017-07-18T04:31:50.219Z,99011.52
2017-07-18T04:34:20.080Z,99012.47
2017-07-18T04:36:49.800Z,99013.16
2017-07-18T04:39:19.532Z,99018.56
2017-07-18T04:41:49.263Z,99009.87
2017-07-18T04:44:19.021Z,99011.61
2017-07-18T04:46:48.749Z,99007.23
2017-07-18T04:49:18.485Z,99011.66
2017-07-18T04:51:48.224Z,99017.88
2017-07-18T04:54:17.981Z,99016.89
2017-07-18T04:56:47.426Z,99018.61
2017-07-18T04:59:17.173Z,99019.22
2017-07-18T05:01:46.618Z,99016.30
2017-07-18T05:04:16.083Z,99016.74
2017-07-18T05:06:45.537Z,99012.01
2017-07-18T05:09:14.992Z,99013.29
2017-07-18T05:11:44.444Z,99012.48
2017-07-18T05:14:13.903Z,99015.55
2017-07-18T05:16:43.358Z,99013.81
2017-07-18T05:19:12.808Z,99008.94
2017-07-18T05:21:42.261Z,99011.14
2017-07-18T05:24:11.714Z,99011.53
2017-07-18T05:26:41.150Z,99009.05
2017-07-18T05:29:10.616Z,99014.78
2017-07-18T05:31:40.062Z,99013.03
2017-07-18T05:34:09.515Z,99011.25
2017-07-18T05:36:38.968Z,99008.06
2017-07-18T05:39:08.422Z,99006.94
2017-07-18T05:41:37.876Z,99007.14
2017-07-18T05:44:07.334Z,99009.70
2017-07-18T05:46:36.777Z,99006.11
2017-07-18T05:49:06.233Z,99011.66
2017-07-18T05:51:35.684Z,99007.56
2017-07-18T05:54:05.130Z,99010.64
2017-07-18T05:56:34.588Z,99013.61
2017-07-18T05:59:04.043Z,99010.83
2017-07-18T06:01:33.520Z,99006.02
2017-07-18T06:04:02.958Z,99012.92
2017-07-18T06:06:32.418Z,99009.72
2017-07-18T06:09:01.876Z,99006.55
2017-07-18T06:11:31.385Z,99009.38
2017-07-18T06:14:00.861Z,99005.61
2017-07-18T06:16:30.334Z,99014.19
2017-07-18T06:18:59.802Z,99014.79
2017-07-18T06:21:29.258Z,99006.91
2017-07-18T06:23:58.720Z,99005.41
2017-07-18T06:26:28.164Z,99010.11
2017-07-18T06:28:57.633Z,99012.72
2017-07-18T06:31:27.110Z,99007.47
2017-07-18T06:33:56.570Z,99006.92
2017-07-18T06:36:26.029Z,99000.93
2017-07-18T06:38:57.121Z,98999.78
2017-07-18T06:41:26.581Z,98996.52
2017-07-18T06:43:56.091Z,98995.41
2017-07-18T06:46:25.548Z,98992.88
2017-07-18T06:48:55.015Z,98991.20
2017-07-18T06:51:24.457Z,98992.06
2017-07-18T06:53:53.940Z,98991.19
2017-07-18T06:56:23.411Z,98993.09
2017-07-18T06:58:52.861Z,98989.91
2017-07-18T07:01:22.300Z,98982.48
2017-07-18T07:03:51.760Z,98983.19
2017-07-18T07:06:21.381Z,98978.94
2017-07-18T07:08:51.505Z,98973.56
2017-07-18T07:11:20.961Z,98978.42
2017-07-18T07:13:50.307Z,98976.37
2017-07-18T07:16:19.761Z,98971.95
2017-07-18T07:18:49.472Z,98966.38
2017-07-18T07:21:18.976Z,98970.92
2017-07-18T07:23:48.428Z,98975.38
2017-07-18T07:26:17.871Z,98977.86
2017-07-18T07:28:47.336Z,98971.00
2017-07-18T07:31:16.779Z,98975.81
2017-07-18T07:33:46.234Z,98974.33
2017-07-18T07:36:15.686Z,98969.85
2017-07-18T07:38:45.149Z,98970.30
2017-07-18T07:41:14.632Z,98971.08
2017-07-18T07:43:44.068Z,98961.66
2017-07-18T07:46:13.514Z,98964.58
2017-07-18T07:48:42.954Z,98962.90
2017-07-18T07:51:12.438Z,98966.18
2017-07-18T07:53:41.873Z,98959.00
2017-07-18T07:56:11.328Z,98961.73
2017-07-18T07:58:41.478Z,98962.83
2017-07-18T08:01:10.911Z,98957.98
2017-07-18T08:03:40.353Z,98950.58
2017-07-18T08:06:09.812Z,98951.05
2017-07-18T08:08:39.253Z,98946.70
2017-07-18T08:11:08.692Z,98940.61
2017-07-18T08:13:38.161Z,98940.98
2017-07-18T08:16:07.606Z,98947.45
2017-07-18T08:18:37.057Z,98938.54
2017-07-18T08:21:06.493Z,98936.19
2017-07-18T08:23:35.945Z,98933.92
2017-07-18T08:26:05.396Z,98932.30
2017-07-18T08:28:34.849Z,98935.17
2017-07-18T08:31:04.308Z,98932.33
2017-07-18T08:33:36.655Z,98933.62
2017-07-18T08:36:10.842Z,98937.14
2017-07-18T08:38:41.240Z,98931.83
2017-07-18T08:41:12.929Z,98926.70
2017-07-18T08:43:44.528Z,98923.26
2017-07-18T08:46:15.103Z,98928.66
2017-07-18T08:48:46.909Z,98920.27
2017-07-18T08:51:18.749Z,98916.11
2017-07-18T08:53:51.020Z,98917.08
2017-07-18T08:56:22.961Z,98915.70
2017-07-18T08:58:54.340Z,98912.27
2017-07-18T09:01:26.395Z,98913.78
2017-07-18T09:03:58.544Z,98913.66
2017-07-18T09:06:31.149Z,98908.84
2017-07-18T09:09:04.031Z,98904.73
2017-07-18T09:11:37.176Z,98903.77
2017-07-18T09:14:10.313Z,98899.80
2017-07-18T09:16:43.801Z,98898.14
2017-07-18T09:19:17.285Z,98896.61
2017-07-18T09:21:50.407Z,98892.56
2017-07-18T09:24:25.936Z,98891.77
2017-07-18T09:26:59.593Z,98891.83
2017-07-18T09:29:32.726Z,98890.77
2017-07-18T09:32:05.957Z,98894.89
2017-07-18T09:34:38.830Z,98887.94
2017-07-18T09:37:11.461Z,98897.73
2017-07-18T09:39:44.263Z,98887.52
2017-07-18T09:42:15.663Z,98882.78
2017-07-18T09:44:45.137Z,98877.31
2017-07-18T09:47:14.697Z,98883.27
2017-07-18T09:49:44.124Z,98884.60
2017-07-18T09:52:13.569Z,98875.08
2017-07-18T09:54:43.007Z,98871.89
2017-07-18T09:57:12.556Z,98871.25
2017-07-18T09:59:42.013Z,98867.75
2017-07-18T10:02:11.464Z,98872.63
2017-07-18T10:04:40.899Z,98862.60
2017-07-18T10:07:10.351Z,98861.22
2017-07-18T10:09:39.819Z,98863.45
2017-07-18T10:12:09.256Z,98855.85
2017-07-18T10:14:38.708Z,98855.78
2017-07-18T10:17:08.165Z,98841.83
2017-07-18T10:19:37.633Z,98841.13
2017-07-18T10:22:07.128Z,98843.41
2017-07-18T10:24:36.585Z,98840.14
2017-07-18T10:27:06.024Z,98844.13
2017-07-18T10:29:36.342Z,98835.34
2017-07-18T10:32:05.788Z,98836.73
2017-07-18T10:34:35.242Z,98833.39
2017-07-18T10:37:04.697Z,98829.55
2017-07-18T10:39:34.136Z,98834.34
2017-07-18T10:42:03.576Z,98825.91
2017-07-18T10:44:33.033Z,98831.53
2017-07-18T10:47:02.317Z,98828.63
2017-07-18T10:49:31.770Z,98816.75
2017-07-18T10:52:01.230Z,98820.45
2017-07-18T10:54:30.673Z,98810.25
2017-07-18T10:57:00.125Z,98815.28
2017-07-18T10:59:29.581Z,98815.41
2017-07-18T11:01:59.034Z,98815.18
2017-07-18T11:04:28.512Z,98809.90
2017-07-18T11:06:57.979Z,98815.23
2017-07-18T11:09:27.404Z,98807.94
2017-07-18T11:11:56.918Z,98807.03
2017-07-18T11:14:26.358Z,98805.23
2017-07-18T11:16:55.797Z,98799.36
2017-07-18T11:19:25.237Z,98798.90
2017-07-18T11:21:54.711Z,98799.94
2017-07-18T11:24:24.126Z,98799.97
2017-07-18T11:26:53.600Z,98802.97
2017-07-18T11:29:23.056Z,98794.66
2017-07-18T11:31:52.545Z,98791.41
2017-07-18T11:34:22.136Z,98788.50
2017-07-18T11:36:51.673Z,98778.56
2017-07-18T11:39:21.131Z,98782.98
2017-07-18T11:41:50.570Z,98784.17
2017-07-18T11:44:20.009Z,98779.83
2017-07-18T11:46:49.464Z,98771.67
2017-07-18T11:49:18.937Z,98775.05
2017-07-18T11:51:48.390Z,98775.30
2017-07-18T11:54:17.836Z,98765.77
2017-07-18T11:56:47.296Z,98767.20
2017-07-18T11:59:16.743Z,98765.82
2017-07-18T12:01:46.194Z,98759.02
2017-07-18T12:04:15.653Z,98761.72
2017-07-18T12:06:45.101Z,98754.30
2017-07-18T12:09:15.494Z,98755.77
2017-07-18T12:11:44.957Z,98755.59
2017-07-18T12:14:14.412Z,98750.17
2017-07-18T12:16:43.852Z,98750.82
2017-07-18T12:19:13.116Z,98752.96
2017-07-18T12:21:42.560Z,98746.83
2017-07-18T12:24:12.005Z,98748.42
2017-07-18T12:26:41.436Z,98746.03
2017-07-18T12:29:10.991Z,98746.69
2017-07-18T12:31:40.441Z,98738.23
2017-07-18T12:34:09.887Z,98737.84
2017-07-18T12:36:39.348Z,98735.63
2017-07-18T12:39:08.809Z,98730.98
2017-07-18T12:41:38.498Z,98730.61
2017-07-18T12:44:07.945Z,98728.64
2017-07-18T12:46:37.538Z,98728.73
2017-07-18T12:49:07.059Z,98725.33
2017-07-18T12:51:36.588Z,98718.59
2017-07-18T12:54:06.047Z,98719.45
2017-07-18T12:56:35.489Z,98719.45
2017-07-18T12:59:04.922Z,98720.93
2017-07-18T13:01:34.362Z,98719.40
2017-07-18T13:04:03.812Z,98716.05
2017-07-18T13:06:33.261Z,98712.89
2017-07-18T13:09:02.713Z,98709.64
2017-07-18T13:11:31.997Z,98710.11
2017-07-18T13:14:01.441Z,98705.27
2017-07-18T13:16:30.885Z,98692.84
2017-07-18T13:19:00.328Z,98707.28
2017-07-18T13:21:29.773Z,98696.32
2017-07-18T13:23:59.217Z,98699.09
2017-07-18T13:26:28.673Z,98693.31
2017-07-18T13:28:58.108Z,98685.84
2017-07-18T13:31:27.580Z,98683.73
2017-07-18T13:33:57.033Z,98682.58
2017-07-18T13:36:26.485Z,98679.70
2017-07-18T13:38:55.925Z,98674.36
2017-07-18T13:41:25.377Z,98672.73
2017-07-18T13:43:54.836Z,98666.19
2017-07-18T13:46:24.286Z,98664.61
2017-07-18T13:48:53.582Z,98664.33
2017-07-18T13:51:23.021Z,98658.41
2017-07-18T13:53:52.482Z,98657.39
2017-07-18T13:56:21.933Z,98656.52
2017-07-18T13:58:51.374Z,98644.70
2017-07-18T14:01:20.833Z,98633.08
2017-07-18T14:03:50.273Z,98636.80
2017-07-18T14:06:19.867Z,98633.83
2017-07-18T14:08:49.310Z,98628.64
2017-07-18T14:11:18.747Z,98629.98
2017-07-18T14:13:48.192Z,98627.63
2017-07-18T14:16:17.632Z,98628.23
2017-07-18T14:18:47.097Z,98621.25
2017-07-18T14:21:16.549Z,98615.84
2017-07-18T14:23:46.034Z,98617.23
2017-07-18T14:26:15.482Z,98603.83
2017-07-18T14:28:44.920Z,98600.42
2017-07-18T14:31:14.360Z,98596.60
2017-07-18T14:33:43.826Z,98597.31
2017-07-18T14:36:13.255Z,98599.03
2017-07-18T14:38:43.564Z,98594.22
2017-07-18T14:41:13.113Z,98593.61
2017-07-18T14:43:43.234Z,98585.97
2017-07-18T14:46:12.694Z,98585.04
2017-07-18T14:48:42.122Z,98574.14
2017-07-18T14:51:11.558Z,98573.47
2017-07-18T14:53:40.997Z,98573.63
2017-07-18T14:56:10.432Z,98574.41
2017-07-18T14:58:39.881Z,98566.23
2017-07-18T15:01:09.335Z,98564.94
2017-07-18T15:03:38.788Z,98561.45
2017-07-18T15:06:08.241Z,98555.88
2017-07-18T15:08:37.681Z,98558.23
2017-07-18T15:11:07.140Z,98549.61
2017-07-18T15:13:36.737Z,98551.83
2017-07-18T15:16:06.186Z,98548.36
2017-07-18T15:18:35.629Z,98549.66
2017-07-18T15:21:05.078Z,98539.88
2017-07-18T15:23:34.526Z,98535.08
2017-07-18T15:26:03.968Z,98535.09
2017-07-18T15:28:33.409Z,98534.07
2017-07-18T15:31:02.864Z,98532.43
2017-07-18T15:33:32.321Z,98528.31
2017-07-18T15:36:01.780Z,98529.28
2017-07-18T15:38:31.225Z,98524.51
2017-07-18T15:41:00.661Z,98519.09
2017-07-18T15:43:30.890Z,98515.88
2017-07-18T15:46:00.335Z,98515.47
2017-07-18T15:48:29.790Z,98518.03
2017-07-18T15:50:59.243Z,98519.45
2017-07-18T15:53:28.681Z,98511.05
2017-07-18T15:55:58.129Z,98518.94
2017-07-18T15:58:27.617Z,98518.84
2017-07-18T16:00:57.118Z,98516.86
2017-07-18T16:03:26.692Z,98513.34
2017-07-18T16:05:56.132Z,98510.72
2017-07-18T16:08:25.584Z,98510.84
2017-07-18T16:10:55.018Z,98510.62
2017-07-18T16:13:24.473Z,98504.09
2017-07-18T16:15:53.939Z,98506.41
2017-07-18T16:18:23.428Z,98503.06
2017-07-18T16:20:53.516Z,98501.44
2017-07-18T16:23:23.194Z,98501.98
2017-07-18T16:25:52.729Z,98495.04
2017-07-18T16:28:22.169Z,98492.50
2017-07-18T16:30:51.610Z,98484.13
2017-07-18T16:33:21.095Z,98478.66
2017-07-18T16:35:50.544Z,98473.80
2017-07-18T16:38:19.989Z,98472.38
2017-07-18T16:40:49.441Z,98468.92
2017-07-18T16:43:18.925Z,98472.62
2017-07-18T16:45:48.362Z,98476.36
2017-07-18T16:48:17.820Z,98470.47
2017-07-18T16:50:47.289Z,98469.77
2017-07-18T16:53:16.737Z,98465.56
2017-07-18T16:55:46.207Z,98465.98
2017-07-18T16:58:15.661Z,98474.99
2017-07-18T17:00:45.140Z,98469.47
2017-07-18T17:03:14.590Z,98473.25
2017-07-18T17:05:44.112Z,98474.34
2017-07-18T17:08:13.572Z,98471.48
2017-07-18T17:10:43.019Z,98467.30
2017-07-18T17:13:12.489Z,98470.52
2017-07-18T17:15:41.924Z,98471.67
2017-07-18T17:18:11.371Z,98473.20
2017-07-18T17:20:40.818Z,98483.38
2017-07-18T17:23:10.260Z,98479.85
2017-07-18T17:25:39.710Z,98481.48
2017-07-18T17:28:09.165Z,98478.27
2017-07-18T17:30:38.689Z,98479.72
2017-07-18T17:33:08.273Z,98478.94
2017-07-18T17:35:37.732Z,98483.84
2017-07-18T17:38:07.191Z,98481.81
2017-07-18T17:40:36.632Z,98471.84
2017-07-18T17:43:06.082Z,98476.61
2017-07-18T17:45:35.546Z,98479.86
2017-07-18T17:48:05.002Z,98489.48
2017-07-18T17:50:34.458Z,98478.59
2017-07-18T17:53:03.949Z,98481.13
2017-07-18T17:55:33.420Z,98484.33
2017-07-18T17:58:02.852Z,98484.61
2017-07-18T18:00:32.330Z,98484.55
2017-07-18T18:03:01.777Z,98488.56
2017-07-18T18:05:31.310Z,98482.23
2017-07-18T18:08:00.742Z,98478.80
2017-07-18T18:10:30.185Z,98478.02
2017-07-18T18:12:59.628Z,98482.90
2017-07-18T18:15:29.077Z,98479.86
2017-07-18T18:17:58.526Z,98481.38
2017-07-18T18:20:27.987Z,98483.18
2017-07-18T18:22:57.432Z,98484.40
2017-07-18T18:25:27.837Z,98479.98
2017-07-18T18:27:57.278Z,98475.75
2017-07-18T18:30:26.736Z,98482.02
2017-07-18T18:32:56.170Z,98480.73
2017-07-18T18:35:25.656Z,98483.64
2017-07-18T18:37:55.122Z,98482.98
2017-07-18T18:40:24.586Z,98487.16
2017-07-18T18:42:54.174Z,98486.70
2017-07-18T18:45:23.680Z,98486.36
2017-07-18T18:47:53.127Z,98488.34
2017-07-18T18:50:22.619Z,98485.19
2017-07-18T18:52:52.068Z,98493.32
2017-07-18T18:55:21.561Z,98495.27
2017-07-18T18:57:51.183Z,98494.29
2017-07-18T19:00:20.656Z,98494.34
2017-07-18T19:02:50.124Z,98501.12
2017-07-18T19:05:19.618Z,98494.92
2017-07-18T19:07:49.123Z,98487.45
2017-07-18T19:10:18.633Z,98491.23
2017-07-18T19:12:49.010Z,98491.97
2017-07-18T19:15:18.507Z,98491.20
2017-07-18T19:17:47.966Z,98486.45
2017-07-18T19:20:17.480Z,98485.95
2017-07-18T19:22:46.920Z,98495.20
2017-07-18T19:25:16.457Z,98489.04
2017-07-18T19:27:45.916Z,98496.82
2017-07-18T19:30:15.414Z,98494.84
2017-07-18T19:32:44.862Z,98495.98
2017-07-18T19:35:14.415Z,98498.61
2017-07-18T19:37:43.872Z,98498.33
2017-07-18T19:40:13.370Z,98493.41
2017-07-18T19:42:42.810Z,98497.88
2017-07-18T19:45:12.325Z,98497.55
2017-07-18T19:47:41.845Z,98495.08
2017-07-18T19:50:11.419Z,98499.95
2017-07-18T19:52:40.930Z,98499.66
2017-07-18T19:55:10.422Z,98497.38
2017-07-18T19:57:39.878Z,98493.87
2017-07-18T20:00:09.377Z,98499.92
2017-07-18T20:02:38.819Z,98502.23
2017-07-18T20:05:08.338Z,98499.09
2017-07-18T20:07:37.765Z,98499.47
2017-07-18T20:10:07.312Z,98501.94
2017-07-18T20:12:36.754Z,98501.17
2017-07-18T20:15:06.265Z,98500.08
2017-07-18T20:17:35.724Z,98496.40
2017-07-18T20:20:05.238Z,98500.81
2017-07-18T20:22:34.716Z,98495.58
2017-07-18T20:25:04.204Z,98498.22
2017-07-18T20:27:33.650Z,98497.50
2017-07-18T20:30:03.155Z,98495.83
2017-07-18T20:32:32.597Z,98492.95
2017-07-18T20:35:02.158Z,98493.88
2017-07-18T20:37:31.609Z,98492.83
2017-07-18T20:40:01.075Z,98491.50
2017-07-18T20:42:30.618Z,98485.99
2017-07-18T20:45:00.093Z,98489.75
2017-07-18T20:47:29.552Z,98486.80
2017-07-18T20:49:58.989Z,98489.92
2017-07-18T20:52:28.484Z,98490.61
2017-07-18T20:54:57.936Z,98491.13
2017-07-18T20:57:27.402Z,98488.30
2017-07-18T20:59:56.839Z,98493.39
2017-07-18T21:02:26.277Z,98489.11
2017-07-18T21:04:55.738Z,98490.36
2017-07-18T21:07:25.201Z,98489.31
2017-07-18T21:09:54.658Z,98497.67
2017-07-18T21:12:24.112Z,98494.23
2017-07-18T21:14:53.606Z,98498.69
2017-07-18T21:17:23.137Z,98505.03
2017-07-18T21:19:52.742Z,98504.91
2017-07-18T21:22:22.181Z,98511.62
2017-07-18T21:24:51.633Z,98510.08
2017-07-18T21:27:21.103Z,98508.38
2017-07-18T21:29:50.579Z,98507.85
2017-07-18T21:32:20.011Z,98506.99
2017-07-18T21:34:49.675Z,98514.80
2017-07-18T21:37:19.134Z,98511.23
2017-07-18T21:39:48.660Z,98512.48
2017-07-18T21:42:18.229Z,98511.00
2017-07-18T21:44:48.424Z,98508.72
2017-07-18T21:47:17.883Z,98507.80
2017-07-18T21:49:47.622Z,98505.27
2017-07-18T21:52:17.147Z,98509.17
2017-07-18T21:54:47.124Z,98510.11
2017-07-18T21:57:17.072Z,98518.67
2017-07-18T21:59:46.672Z,98514.61
2017-07-18T22:02:16.195Z,98521.32
2017-07-18T22:04:45.629Z,98510.95
2017-07-18T22:07:15.157Z,98507.06
2017-07-18T22:09:44.673Z,98508.78
2017-07-18T22:12:14.275Z,98506.30
2017-07-18T22:14:43.859Z,98506.63
2017-07-18T22:17:13.418Z,98509.17
2017-07-18T22:19:42.932Z,98507.48
2017-07-18T22:22:12.454Z,98511.39
2017-07-18T22:24:41.996Z,98511.41
2017-07-18T22:27:11.487Z,98515.63
2017-07-18T22:29:40.953Z,98513.75
2017-07-18T22:32:10.394Z,98509.38
2017-07-18T22:34:39.851Z,98517.21
2017-07-18T22:37:10.279Z,98511.16
2017-07-18T22:39:39.718Z,98518.02
2017-07-18T22:42:09.170Z,98515.53
2017-07-18T22:44:38.629Z,98519.60
2017-07-18T22:47:08.077Z,98516.55
2017-07-18T22:49:37.352Z,98516.05
2017-07-18T22:52:06.804Z,98517.37
2017-07-18T22:54:36.256Z,98522.93
2017-07-18T22:57:05.718Z,98527.80
2017-07-18T22:59:35.183Z,98531.09
2017-07-18T23:02:04.640Z,98533.59
2017-07-18T23:04:34.067Z,98528.67
2017-07-18T23:07:03.521Z,98533.05
2017-07-18T23:09:32.962Z,98522.94
2017-07-18T23:12:02.405Z,98527.63
2017-07-18T23:14:31.850Z,98522.55
2017-07-18T23:17:01.317Z,98524.82
2017-07-18T23:19:30.777Z,98525.04
2017-07-18T23:22:00.213Z,98514.41
2017-07-18T23:24:29.694Z,98517.06
2017-07-18T23:26:59.833Z,98518.62
2017-07-18T23:29:29.274Z,98522.08
2017-07-18T23:31:58.719Z,98514.56
2017-07-18T23:34:28.168Z,98514.50
2017-07-18T23:36:57.608Z,98512.16
2017-07-18T23:39:27.045Z,98520.08
2017-07-18T23:41:56.541Z,98524.82
2017-07-18T23:44:25.981Z,98517.16
2017-07-18T23:46:55.425Z,98526.38
2017-07-18T23:49:25.577Z,98522.83
2017-07-18T23:51:55.038Z,98523.22
2017-07-18T23:54:24.468Z,98529.26
2017-07-18T23:56:53.916Z,98528.05
2017-07-18T23:59:23.369Z,98530.05
